Time;durP1;ratioP1;P1;durP2;ratioP2;P2;SDS_P1;SDS_P2;PMS_P1;PMS_P2;Temp;Humidity;BMP_temperature;BMP_pressure;BME280_temperature;BME280_humidity;BME280_pressure;Samples;Min_cycle;Max_cycle;Signal;HPM_P1;HPM_P2
2022/11/14 00:01:57;;;;;;;2.33;0.70;;;;;;;3.36;72.12;99965.00;4985365;28;20042;-62
2022/11/14 00:04:22;;;;;;;1.65;0.77;;;;;;;3.42;71.59;99971.06;4985179;28;20038;-64
2022/11/14 00:06:48;;;;;;;1.17;0.60;;;;;;;3.39;70.51;99962.47;4984420;28;20090;-65
2022/11/14 00:09:13;;;;;;;2.13;0.57;;;;;;;3.42;70.35;99959.94;4984931;28;20215;-65
2022/11/14 00:11:39;;;;;;;0.50;0.50;;;;;;;3.37;69.92;99964.19;4983780;28;20039;-65
2022/11/14 00:14:05;;;;;;;2.30;1.40;;;;;;;3.39;69.77;99958.25;4983734;28;20034;-65
2022/11/14 00:16:30;;;;;;;3.95;2.55;;;;;;;3.43;69.92;99961.69;4984747;28;20143;-64
2022/11/14 00:18:56;;;;;;;1.52;0.80;;;;;;;3.40;70.20;99962.50;4984495;28;20199;-63
2022/11/14 00:21:22;;;;;;;2.38;1.48;;;;;;;3.39;69.55;99957.38;4984557;28;20034;-64
2022/11/14 00:23:47;;;;;;;4.13;0.90;;;;;;;3.11;69.45;99957.03;4988156;28;20094;-63
2022/11/14 00:26:13;;;;;;;1.20;0.98;;;;;;;3.29;70.06;99969.19;4984802;28;20030;-63
2022/11/14 00:28:38;;;;;;;0.70;0.63;;;;;;;3.31;68.70;99971.75;4984478;28;20038;-63
2022/11/14 00:31:04;;;;;;;2.25;0.85;;;;;;;3.24;69.72;99950.38;4984533;28;20030;-63
2022/11/14 00:33:30;;;;;;;1.75;0.85;;;;;;;3.26;69.71;99970.03;4984549;28;20027;-63
2022/11/14 00:35:56;;;;;;;1.45;0.85;;;;;;;3.22;70.70;99962.28;4984625;28;20038;-63
2022/11/14 00:38:22;;;;;;;1.05;0.80;;;;;;;3.25;70.40;99970.84;4989570;28;20094;-63
2022/11/14 00:40:48;;;;;;;0.73;0.60;;;;;;;3.27;70.76;99973.44;5003291;28;20038;-63
2022/11/14 00:43:14;;;;;;;1.45;1.10;;;;;;;3.20;70.47;99967.38;4984302;28;20039;-62
2022/11/14 00:45:42;;;;;;;3.08;2.65;;;;;;;3.17;71.61;99976.72;4984413;28;20315;-63
2022/11/14 00:48:08;;;;;;;2.10;1.15;;;;;;;3.26;71.93;99989.63;4984443;28;20053;-63
2022/11/14 00:50:34;;;;;;;0.70;0.70;;;;;;;3.14;71.96;99980.09;4984288;28;20308;-63
2022/11/14 00:52:59;;;;;;;1.92;0.80;;;;;;;2.98;72.24;99988.38;4983202;28;20089;-63
2022/11/14 00:55:25;;;;;;;1.27;1.00;;;;;;;3.13;73.36;99986.03;4983980;28;20026;-63
2022/11/14 00:57:51;;;;;;;1.60;0.63;;;;;;;3.22;73.42;99996.41;4984372;28;20102;-62
2022/11/14 01:00:16;;;;;;;2.90;0.50;;;;;;;3.03;73.20;99995.28;4984143;28;20030;-63
2022/11/14 01:02:42;;;;;;;2.10;1.25;;;;;;;3.17;73.01;99990.38;4984043;28;20023;-62
2022/11/14 01:05:08;;;;;;;1.52;0.70;;;;;;;3.22;72.21;99998.97;4983143;28;20030;-63
2022/11/14 01:07:33;;;;;;;1.90;0.60;;;;;;;3.27;71.41;100004.16;4984114;28;20446;-62
2022/11/14 01:09:59;;;;;;;1.55;1.25;;;;;;;3.25;72.62;100009.25;4984403;28;20049;-63
2022/11/14 01:12:24;;;;;;;0.82;0.60;;;;;;;3.11;71.72;100010.75;4983945;28;20023;-63
2022/11/14 01:14:50;;;;;;;1.17;0.57;;;;;;;3.01;72.06;100014.03;4984173;28;20307;-64
2022/11/14 01:17:15;;;;;;;3.72;0.70;;;;;;;2.64;71.75;100005.81;4983889;28;20315;-64
2022/11/14 01:19:41;;;;;;;1.00;0.80;;;;;;;2.73;70.48;99988.03;4984343;28;20057;-63
2022/11/14 01:22:07;;;;;;;4.88;3.50;;;;;;;3.03;68.55;100002.13;4984061;28;20138;-64
2022/11/14 01:24:33;;;;;;;2.28;1.65;;;;;;;2.99;67.43;100011.44;4987643;28;20038;-64
2022/11/14 01:26:58;;;;;;;1.33;0.50;;;;;;;2.84;67.39;99996.72;4982756;28;20035;-64
2022/11/14 01:29:24;;;;;;;0.75;0.60;;;;;;;2.76;67.19;100008.53;4982649;28;20303;-64
2022/11/14 01:31:49;;;;;;;2.10;1.55;;;;;;;3.07;68.01;100006.44;4983959;28;20378;-64
2022/11/14 01:34:15;;;;;;;1.50;0.55;;;;;;;2.53;64.49;100001.34;4983076;28;20022;-63
2022/11/14 01:36:41;;;;;;;0.90;0.45;;;;;;;2.49;64.71;100022.59;4983718;28;20026;-64
2022/11/14 01:39:06;;;;;;;2.30;1.27;;;;;;;2.67;65.65;100021.19;5014954;28;20042;-64
2022/11/14 01:41:32;;;;;;;0.93;0.65;;;;;;;2.75;65.79;100024.69;4983753;28;20057;-63
2022/11/14 01:43:57;;;;;;;0.85;0.82;;;;;;;2.81;66.20;100017.16;4982746;28;20110;-64
2022/11/14 01:46:23;;;;;;;2.40;0.80;;;;;;;2.87;64.44;100032.56;4983800;28;20030;-64
2022/11/14 01:49:16;;;;;;;1.42;0.60;;;;;;;2.89;64.33;100018.13;4984008;28;20082;-64
2022/11/14 01:51:50;;;;;;;0.68;0.63;;;;;;;2.87;63.27;100022.34;4983522;28;20035;-63
2022/11/14 01:54:25;;;;;;;3.70;0.90;;;;;;;2.86;63.05;100007.81;4983809;28;20027;-64
2022/11/14 01:56:56;;;;;;;1.55;0.70;;;;;;;2.98;63.74;100032.75;4983799;28;20093;-64
2022/11/14 01:59:26;;;;;;;0.88;0.70;;;;;;;3.01;63.61;100034.50;4988100;28;20053;-65
2022/11/14 02:01:55;;;;;;;1.70;0.80;;;;;;;2.99;63.98;100064.28;5001900;28;20062;-65
2022/11/14 02:04:31;;;;;;;2.10;0.90;;;;;;;2.97;63.51;100048.06;4982406;28;20330;-65
2022/11/14 02:07:01;;;;;;;1.05;0.80;;;;;;;2.74;64.05;100025.56;5000541;28;20027;-62
2022/11/14 02:09:33;;;;;;;2.15;1.02;;;;;;;2.86;64.62;100035.09;4989986;28;20030;-63
2022/11/14 02:12:01;;;;;;;0.85;0.70;;;;;;;2.91;63.22;100059.06;4982655;28;20247;-64
2022/11/14 02:14:29;;;;;;;0.75;0.60;;;;;;;2.67;62.88;100033.97;4983741;28;20030;-64
2022/11/14 02:16:55;;;;;;;2.47;0.60;;;;;;;2.95;62.68;100060.84;4985623;28;20026;-64
2022/11/14 02:19:21;;;;;;;1.20;0.50;;;;;;;2.80;62.49;100066.56;5018251;28;20077;-63
2022/11/14 02:21:46;;;;;;;1.05;0.60;;;;;;;2.71;60.10;100074.94;4986993;28;20081;-65
2022/11/14 02:24:12;;;;;;;2.25;1.25;;;;;;;2.72;60.45;100078.34;5002435;28;20041;-64
2022/11/14 02:26:40;;;;;;;1.85;0.70;;;;;;;2.65;58.51;100062.06;4999765;28;20247;-63
2022/11/14 02:29:07;;;;;;;1.63;0.70;;;;;;;2.72;59.22;100076.69;4986347;28;20027;-64
2022/11/14 02:31:33;;;;;;;0.95;0.57;;;;;;;2.80;59.07;100073.38;4985218;28;20039;-65
2022/11/14 02:33:58;;;;;;;1.00;0.70;;;;;;;2.71;57.62;100071.53;4986559;28;20054;-64
2022/11/14 02:36:24;;;;;;;1.98;1.00;;;;;;;2.72;58.70;100076.69;4986564;28;20062;-63
2022/11/14 02:38:50;;;;;;;1.15;0.60;;;;;;;2.56;58.23;100072.97;5018634;28;20031;-63
2022/11/14 02:41:15;;;;;;;3.08;0.82;;;;;;;2.61;57.82;100075.63;4989989;28;20085;-64
2022/11/14 02:43:41;;;;;;;1.45;0.70;;;;;;;2.82;58.48;100093.03;4995679;28;20346;-64
2022/11/14 02:46:06;;;;;;;1.00;0.88;;;;;;;2.73;58.40;100090.31;4986604;28;20046;-63
2022/11/14 02:48:32;;;;;;;2.20;0.70;;;;;;;2.65;58.00;100081.66;4986128;28;20035;-64
2022/11/14 02:50:58;;;;;;;2.05;0.75;;;;;;;2.51;57.28;100087.38;4986367;28;20053;-64
2022/11/14 02:53:23;;;;;;;3.50;0.70;;;;;;;2.44;56.41;100085.56;4986485;28;20031;-64
2022/11/14 02:55:49;;;;;;;1.75;0.65;;;;;;;2.67;57.26;100092.78;4986594;28;20058;-64
2022/11/14 02:58:14;;;;;;;1.27;0.57;;;;;;;2.43;57.20;100094.06;4986518;28;20127;-64
2022/11/14 03:00:40;;;;;;;1.17;0.90;;;;;;;2.57;57.49;100107.09;4986311;28;20045;-63
2022/11/14 03:03:05;;;;;;;2.65;0.90;;;;;;;2.51;59.79;100082.28;4985119;28;20030;-63
2022/11/14 03:05:31;;;;;;;2.03;0.90;;;;;;;2.57;58.35;100109.66;4986260;28;20706;-64
2022/11/14 03:07:57;;;;;;;2.47;0.90;;;;;;;2.58;58.44;100104.56;4986347;28;20037;-64
2022/11/14 03:10:23;;;;;;;2.58;0.90;;;;;;;2.56;59.00;100105.34;4986128;28;20026;-64
2022/11/14 03:12:55;;;;;;;2.83;0.80;;;;;;;2.55;59.25;100108.75;4986047;28;20035;-64
2022/11/14 03:15:22;;;;;;;3.22;0.82;;;;;;;2.63;58.61;100108.91;4986031;28;20018;-64
2022/11/14 03:17:48;;;;;;;2.25;0.77;;;;;;;2.54;58.47;100107.03;4985599;28;20294;-63
2022/11/14 03:20:13;;;;;;;2.75;1.13;;;;;;;2.64;58.25;100119.16;4985923;28;20030;-63
2022/11/14 03:22:39;;;;;;;3.65;0.80;;;;;;;2.60;58.62;100112.25;4988817;28;20026;-64
2022/11/14 03:25:05;;;;;;;1.50;0.98;;;;;;;2.58;56.77;100121.59;4987419;28;20043;-64
2022/11/14 03:27:31;;;;;;;1.95;0.80;;;;;;;2.57;57.68;100117.31;4985487;28;20027;-64
2022/11/14 03:29:57;;;;;;;1.30;1.13;;;;;;;2.58;57.91;100117.34;4985711;28;20198;-63
2022/11/14 03:32:22;;;;;;;2.38;0.77;;;;;;;2.57;57.18;100135.22;4985534;28;20034;-64
2022/11/14 03:34:48;;;;;;;2.90;0.70;;;;;;;2.42;55.66;100130.66;4986021;28;20026;-64
2022/11/14 03:37:13;;;;;;;1.60;0.68;;;;;;;2.66;56.89;100134.50;4985327;28;20034;-64
2022/11/14 03:39:39;;;;;;;1.80;0.70;;;;;;;2.63;57.37;100129.34;4985458;28;20077;-64
2022/11/14 03:42:04;;;;;;;1.40;0.80;;;;;;;2.61;57.77;100124.22;4985634;28;20374;-65
2022/11/14 03:44:30;;;;;;;4.65;1.00;;;;;;;2.75;57.63;100129.53;4985215;28;20035;-64
2022/11/14 03:46:56;;;;;;;2.08;1.10;;;;;;;2.44;59.29;100129.00;4985530;28;20092;-64
2022/11/14 03:49:21;;;;;;;4.00;0.90;;;;;;;2.50;57.38;100141.03;4985316;28;20057;-63
2022/11/14 03:51:47;;;;;;;3.25;1.00;;;;;;;2.41;57.88;100132.38;4985199;28;20313;-64
2022/11/14 03:54:12;;;;;;;2.63;1.10;;;;;;;2.54;58.08;100153.06;4985269;28;20031;-65
2022/11/14 03:56:38;;;;;;;3.50;1.10;;;;;;;2.49;55.98;100146.97;4984871;28;20077;-64
2022/11/14 03:59:04;;;;;;;2.75;1.10;;;;;;;2.59;56.26;100146.31;4987765;28;20057;-63
2022/11/14 04:01:29;;;;;;;2.40;1.23;;;;;;;2.44;57.44;100141.78;5004415;28;20053;-63
2022/11/14 04:03:55;;;;;;;1.45;0.98;;;;;;;2.52;57.16;100152.16;4987632;28;20055;-64
2022/11/14 04:06:21;;;;;;;6.35;1.08;;;;;;;2.36;59.51;100156.13;4984726;28;20081;-64
2022/11/14 04:08:46;;;;;;;2.28;0.77;;;;;;;2.32;59.01;100155.19;4984929;28;20026;-64
2022/11/14 04:11:12;;;;;;;1.20;0.82;;;;;;;2.11;56.47;100139.41;4983684;28;20141;-64
2022/11/14 04:13:38;;;;;;;5.75;1.65;;;;;;;2.28;56.74;100162.75;4983787;28;20034;-66
2022/11/14 04:16:03;;;;;;;3.33;0.95;;;;;;;2.27;56.70;100154.25;4984948;28;20033;-64
2022/11/14 04:18:29;;;;;;;2.70;1.00;;;;;;;2.33;57.20;100144.13;4984589;28;20105;-64
2022/11/14 04:20:55;;;;;;;3.80;1.50;;;;;;;2.20;55.69;100157.50;4967665;28;20086;-64
2022/11/14 04:23:20;;;;;;;4.80;1.35;;;;;;;2.13;56.93;100150.56;4989944;28;20081;-65
2022/11/14 04:25:46;;;;;;;2.22;1.10;;;;;;;2.05;56.43;100155.47;4985009;28;20069;-64
2022/11/14 04:28:12;;;;;;;3.97;1.25;;;;;;;2.09;57.07;100154.72;4984895;28;20090;-65
2022/11/14 04:30:38;;;;;;;3.25;1.23;;;;;;;2.09;56.21;100170.06;4984453;28;20342;-63
2022/11/14 04:33:04;;;;;;;2.17;1.30;;;;;;;2.00;56.02;100164.75;4984606;28;20050;-64
2022/11/14 04:35:29;;;;;;;4.57;1.30;;;;;;;1.87;56.37;100168.75;4984314;28;20069;-64
2022/11/14 04:37:55;;;;;;;3.10;1.27;;;;;;;1.96;56.44;100170.63;4986782;28;20027;-64
2022/11/14 04:40:20;;;;;;;3.38;1.20;;;;;;;2.09;56.77;100175.16;4984040;28;20335;-63
2022/11/14 04:42:47;;;;;;;3.50;1.13;;;;;;;1.96;56.69;100179.16;4984515;28;20027;-64
2022/11/14 04:45:13;;;;;;;3.78;1.42;;;;;;;1.87;56.23;100172.16;4994041;28;20326;-64
2022/11/14 04:47:41;;;;;;;2.63;1.45;;;;;;;1.68;56.57;100168.34;4994717;28;20223;-64
2022/11/14 04:50:07;;;;;;;2.22;1.27;;;;;;;1.82;57.48;100193.31;4986298;28;20060;-64
2022/11/14 04:52:33;;;;;;;2.53;1.50;;;;;;;2.00;57.29;100192.84;4991220;28;20039;-63
2022/11/14 04:54:59;;;;;;;2.70;1.40;;;;;;;1.81;57.02;100205.22;4995454;28;20038;-63
2022/11/14 04:57:25;;;;;;;2.42;1.30;;;;;;;1.90;57.45;100196.91;4990671;28;20042;-63
2022/11/14 04:59:50;;;;;;;2.72;1.23;;;;;;;1.97;57.83;100205.56;4983680;28;20035;-63
2022/11/14 05:02:16;;;;;;;3.97;1.63;;;;;;;1.90;57.92;100205.41;4994441;28;20037;-63
2022/11/14 05:04:43;;;;;;;7.05;1.85;;;;;;;1.87;57.48;100207.06;4984447;28;20205;-65
2022/11/14 05:07:09;;;;;;;3.50;1.60;;;;;;;1.85;58.08;100212.13;4983962;28;20138;-64
2022/11/14 05:09:35;;;;;;;2.35;1.75;;;;;;;1.88;58.42;100222.41;4981771;28;20039;-64
2022/11/14 05:12:02;;;;;;;7.05;2.22;;;;;;;1.75;57.93;100237.41;4992148;28;20396;-64
2022/11/14 05:14:28;;;;;;;6.65;2.20;;;;;;;1.79;58.15;100236.66;4999998;28;20050;-65
2022/11/14 05:16:53;;;;;;;7.13;2.10;;;;;;;1.80;57.10;100246.91;4983525;28;20345;-64
2022/11/14 05:19:19;;;;;;;3.72;1.77;;;;;;;1.67;57.00;100245.75;4997247;28;20207;-63
2022/11/14 05:21:45;;;;;;;4.25;2.15;;;;;;;1.33;58.05;100249.16;4991328;28;20031;-64
2022/11/14 05:24:10;;;;;;;4.50;2.03;;;;;;;1.57;58.17;100251.47;4991400;28;20030;-63
2022/11/14 05:26:36;;;;;;;5.57;2.00;;;;;;;1.59;57.71;100251.50;4983658;28;20330;-63
2022/11/14 05:29:02;;;;;;;5.15;1.80;;;;;;;1.49;57.23;100253.81;4982367;28;20039;-63
2022/11/14 05:31:27;;;;;;;4.07;1.90;;;;;;;1.57;57.81;100260.78;4983744;28;20094;-64
2022/11/14 05:33:53;;;;;;;6.25;1.77;;;;;;;1.58;57.85;100262.53;5015364;28;20341;-62
2022/11/14 05:36:19;;;;;;;2.88;1.60;;;;;;;1.44;57.98;100273.28;4983543;28;20030;-64
2022/11/14 05:38:44;;;;;;;3.67;1.95;;;;;;;1.14;58.97;100275.88;4982743;28;20035;-64
2022/11/14 05:41:12;;;;;;;4.88;1.98;;;;;;;1.05;59.04;100263.75;5015027;28;20037;-64
2022/11/14 05:43:38;;;;;;;5.38;2.15;;;;;;;1.27;58.84;100282.16;4984149;28;20129;-63
2022/11/14 05:46:07;;;;;;;6.03;2.55;;;;;;;1.33;58.63;100284.91;4983644;28;20042;-63
2022/11/14 05:48:32;;;;;;;3.88;2.40;;;;;;;1.34;58.65;100291.69;4983570;28;20038;-64
2022/11/14 05:51:00;;;;;;;7.97;2.88;;;;;;;1.23;58.83;100283.78;4984657;28;20047;-64
2022/11/14 05:53:27;;;;;;;3.25;2.30;;;;;;;1.37;58.40;100299.47;4985481;28;20114;-62
2022/11/14 05:55:54;;;;;;;4.93;1.90;;;;;;;1.23;58.71;100301.66;5019020;28;20030;-63
2022/11/14 05:58:19;;;;;;;3.78;1.80;;;;;;;1.40;58.56;100304.63;4987503;28;20023;-64
2022/11/14 06:00:45;;;;;;;6.75;2.97;;;;;;;1.14;58.79;100293.72;4986263;28;20038;-64
2022/11/14 06:03:13;;;;;;;7.82;2.70;;;;;;;1.12;59.07;100303.91;4985881;28;20093;-63
2022/11/14 06:05:39;;;;;;;6.38;2.20;;;;;;;1.12;59.15;100314.09;4986151;28;20345;-64
2022/11/14 06:08:05;;;;;;;5.68;2.72;;;;;;;1.25;59.46;100311.88;4987415;28;20331;-63
2022/11/14 06:10:33;;;;;;;4.03;2.00;;;;;;;0.95;59.13;100283.03;4987298;28;20050;-63
2022/11/14 06:12:59;;;;;;;5.10;2.08;;;;;;;1.03;59.00;100318.97;4986959;28;20073;-64
2022/11/14 06:15:24;;;;;;;4.88;1.90;;;;;;;1.23;58.95;100316.06;4986972;28;20236;-64
2022/11/14 06:17:53;;;;;;;3.83;2.40;;;;;;;1.24;58.59;100320.34;4986740;28;20121;-64
2022/11/14 06:20:20;;;;;;;3.55;2.10;;;;;;;1.15;58.48;100321.81;4984134;28;20050;-63
2022/11/14 06:22:46;;;;;;;3.90;2.00;;;;;;;1.25;59.26;100309.34;4982919;28;20073;-65
2022/11/14 06:25:11;;;;;;;6.20;2.35;;;;;;;1.44;58.59;100320.88;4992048;28;20026;-65
2022/11/14 06:27:37;;;;;;;6.90;2.10;;;;;;;1.42;58.36;100325.94;4986490;28;20031;-65
2022/11/14 06:30:03;;;;;;;7.90;2.85;;;;;;;1.47;58.11;100329.50;4986729;28;20128;-65
2022/11/14 06:32:30;;;;;;;5.68;2.00;;;;;;;1.30;59.98;100340.94;4986623;28;20276;-66
2022/11/14 06:34:55;;;;;;;6.00;2.70;;;;;;;1.33;58.94;100346.13;4986192;28;20030;-64
2022/11/14 06:37:21;;;;;;;4.97;2.00;;;;;;;1.37;59.26;100343.69;5017741;28;20086;-65
2022/11/14 06:39:46;;;;;;;6.55;2.20;;;;;;;1.37;60.07;100353.03;4999909;28;20030;-65
2022/11/14 06:42:14;;;;;;;6.25;2.05;;;;;;;1.05;59.04;100332.59;4997416;28;20027;-65
2022/11/14 06:44:40;;;;;;;4.68;1.95;;;;;;;1.11;58.70;100350.66;4986268;28;20038;-65
2022/11/14 06:47:06;;;;;;;5.78;3.03;;;;;;;1.23;58.10;100362.88;4991683;28;20307;-65
2022/11/14 06:49:31;;;;;;;5.53;1.90;;;;;;;1.05;58.62;100354.72;4987792;28;20030;-65
2022/11/14 06:51:57;;;;;;;6.43;2.00;;;;;;;1.22;59.04;100373.03;4976097;28;20304;-64
2022/11/14 06:54:22;;;;;;;5.18;2.75;;;;;;;1.31;58.79;100373.28;4986042;28;20219;-64
2022/11/14 06:56:48;;;;;;;8.82;2.13;;;;;;;1.30;57.97;100371.56;4986140;28;20030;-65
2022/11/14 06:59:14;;;;;;;6.00;2.00;;;;;;;1.38;57.96;100380.25;4985511;28;20033;-63
2022/11/14 07:01:39;;;;;;;6.32;2.05;;;;;;;1.15;58.03;100380.50;4986020;28;20026;-64
2022/11/14 07:04:05;;;;;;;6.03;2.15;;;;;;;0.96;58.90;100375.72;4992764;28;20035;-64
2022/11/14 07:06:30;;;;;;;10.32;2.20;;;;;;;1.12;58.77;100362.56;4993715;28;20038;-63
2022/11/14 07:08:57;;;;;;;4.43;1.52;;;;;;;1.37;59.03;100373.47;4989027;28;20223;-64
2022/11/14 07:11:26;;;;;;;5.40;2.13;;;;;;;1.37;59.63;100365.81;4996378;28;20026;-63
2022/11/14 07:14:00;;;;;;;6.47;1.98;;;;;;;1.35;58.02;100372.53;4996298;28;20097;-64
2022/11/14 07:16:36;;;;;;;7.68;2.05;;;;;;;1.31;58.08;100383.47;4979460;28;20039;-63
2022/11/14 07:19:04;;;;;;;5.38;1.92;;;;;;;1.42;57.95;100365.91;4985806;28;20058;-65
2022/11/14 07:21:32;;;;;;;7.82;1.95;;;;;;;1.94;57.98;100386.81;4984841;28;20138;-64
2022/11/14 07:23:57;;;;;;;66.32;28.45;;;;;;;1.97;56.12;100379.25;4992641;28;20034;-64
2022/11/14 07:26:23;;;;;;;5.35;2.72;;;;;;;1.96;56.30;100401.34;4985241;28;20081;-65
2022/11/14 07:28:49;;;;;;;6.18;1.92;;;;;;;1.76;57.06;100402.56;4984450;28;20030;-65
2022/11/14 07:31:17;;;;;;;6.75;2.15;;;;;;;1.95;56.95;100397.06;4984854;28;20098;-65
2022/11/14 07:33:43;;;;;;;3.92;1.38;;;;;;;2.21;56.54;100410.50;4985624;28;20343;-65
2022/11/14 07:36:11;;;;;;;4.35;1.58;;;;;;;2.12;55.86;100407.69;4985418;28;20034;-65
2022/11/14 07:38:37;;;;;;;4.07;1.85;;;;;;;2.31;55.33;100403.03;4988709;28;20030;-65
2022/11/14 07:41:11;;;;;;;5.43;1.77;;;;;;;2.55;54.05;100412.97;5004802;28;20333;-64
2022/11/14 07:43:37;;;;;;;5.97;1.70;;;;;;;2.85;53.67;100412.81;4967043;28;20228;-64
2022/11/14 07:46:06;;;;;;;5.63;1.85;;;;;;;3.42;52.61;100416.53;4982793;28;20097;-65
2022/11/14 07:48:33;;;;;;;8.90;2.00;;;;;;;3.73;50.98;100422.22;4985407;28;20034;-64
2022/11/14 07:51:03;;;;;;;5.28;1.60;;;;;;;3.42;50.55;100403.75;4985496;28;20059;-65
2022/11/14 07:53:28;;;;;;;6.80;2.55;;;;;;;3.81;51.13;100430.06;4984314;28;20141;-64
2022/11/14 07:55:55;;;;;;;4.80;1.75;;;;;;;3.43;50.05;100417.41;4984971;28;20054;-65
2022/11/14 07:58:21;;;;;;;5.28;1.77;;;;;;;3.33;50.91;100418.91;4984670;28;20027;-64
2022/11/14 08:00:47;;;;;;;7.85;1.77;;;;;;;3.36;51.82;100410.44;4996751;28;20065;-65
2022/11/14 08:03:12;;;;;;;5.82;1.75;;;;;;;3.40;52.24;100419.91;4994910;28;20061;-64
2022/11/14 08:05:38;;;;;;;21.75;9.98;;;;;;;3.15;51.55;100421.97;4984426;28;20041;-65
2022/11/14 08:08:05;;;;;;;3.85;1.77;;;;;;;3.20;51.15;100416.94;4983752;28;20062;-64
2022/11/14 08:10:30;;;;;;;6.15;1.65;;;;;;;3.35;51.51;100424.94;5003288;28;20326;-65
2022/11/14 08:13:02;;;;;;;9.80;2.72;;;;;;;3.19;52.16;100413.53;4990257;28;20059;-64
2022/11/14 08:15:27;;;;;;;4.88;1.88;;;;;;;3.07;52.07;100424.34;4984292;28;20215;-64
2022/11/14 08:17:57;;;;;;;17.08;8.60;;;;;;;3.25;51.87;100423.00;4983598;28;20042;-65
2022/11/14 08:20:23;;;;;;;6.38;2.10;;;;;;;3.23;52.46;100429.78;4984819;28;20030;-65
2022/11/14 08:22:49;;;;;;;7.13;2.25;;;;;;;3.28;52.66;100438.44;4989083;28;20048;-64
2022/11/14 08:25:14;;;;;;;8.05;3.60;;;;;;;3.38;52.09;100427.56;4987508;28;20031;-65
2022/11/14 08:27:40;;;;;;;4.80;2.47;;;;;;;2.92;51.59;100431.69;4984795;28;20211;-64
2022/11/14 08:30:06;;;;;;;4.20;1.65;;;;;;;3.03;52.03;100432.78;4984640;28;20338;-65
2022/11/14 08:32:32;;;;;;;6.05;1.63;;;;;;;3.14;51.56;100434.75;4982973;28;20027;-65
2022/11/14 08:34:58;;;;;;;6.88;3.17;;;;;;;3.39;51.02;100434.41;4984631;28;20030;-64
2022/11/14 08:37:23;;;;;;;6.60;2.20;;;;;;;3.42;49.89;100437.03;4984004;28;20043;-65
2022/11/14 08:39:49;;;;;;;7.00;2.38;;;;;;;3.76;50.29;100436.78;4984118;28;20082;-65
2022/11/14 08:42:14;;;;;;;4.40;1.60;;;;;;;3.55;49.53;100438.13;4984392;28;20200;-64
2022/11/14 08:44:40;;;;;;;3.75;1.70;;;;;;;3.18;50.76;100427.16;4987595;28;20058;-65
2022/11/14 08:47:05;;;;;;;5.30;2.20;;;;;;;3.81;51.07;100435.19;5002627;28;20250;-65
2022/11/14 08:49:31;;;;;;;9.50;3.20;;;;;;;3.96;50.19;100432.91;4985117;28;20037;-66
2022/11/14 08:51:57;;;;;;;9.85;2.08;;;;;;;3.95;50.13;100440.56;4984340;28;20081;-65
2022/11/14 08:54:22;;;;;;;8.43;4.38;;;;;;;3.91;50.02;100431.94;4984064;28;20046;-65
2022/11/14 08:56:48;;;;;;;7.32;2.88;;;;;;;4.00;49.77;100435.53;4984081;28;20091;-66
2022/11/14 08:59:14;;;;;;;4.38;2.58;;;;;;;3.81;50.12;100430.06;4983702;28;20039;-66
2022/11/14 09:01:39;;;;;;;6.22;1.70;;;;;;;3.95;49.14;100432.88;4984069;28;20027;-65
2022/11/14 09:04:05;;;;;;;7.53;1.92;;;;;;;4.40;49.11;100437.03;4983060;28;20035;-66
2022/11/14 09:06:31;;;;;;;9.98;2.25;;;;;;;4.35;49.22;100433.53;4993574;28;20041;-66
2022/11/14 09:08:57;;;;;;;8.98;2.53;;;;;;;4.33;49.37;100442.91;4998278;28;20026;-65
2022/11/14 09:11:22;;;;;;;5.95;1.63;;;;;;;4.33;50.60;100432.63;4983769;28;20023;-66
2022/11/14 09:13:48;;;;;;;5.47;1.90;;;;;;;4.24;50.52;100442.75;4984076;28;20038;-65
2022/11/14 09:16:13;;;;;;;6.93;2.25;;;;;;;4.12;50.24;100440.88;4983477;28;20031;-65
2022/11/14 09:18:39;;;;;;;5.13;2.45;;;;;;;4.03;49.72;100438.13;4983700;28;20149;-65
2022/11/14 09:21:07;;;;;;;4.78;2.15;;;;;;;3.51;50.30;100431.22;4983614;28;20127;-66
2022/11/14 09:23:33;;;;;;;5.25;2.00;;;;;;;3.58;50.61;100435.63;4990944;28;20118;-65
2022/11/14 09:26:07;;;;;;;5.47;1.75;;;;;;;3.42;50.33;100436.13;4987984;28;20031;-66
2022/11/14 09:28:33;;;;;;;9.10;4.82;;;;;;;3.43;52.11;100432.75;4987587;28;20427;-65
2022/11/14 09:31:03;;;;;;;4.88;2.00;;;;;;;3.44;52.61;100412.28;4988177;28;20041;-66
2022/11/14 09:33:29;;;;;;;7.18;2.80;;;;;;;3.65;52.66;100433.16;4987647;28;20117;-65
2022/11/14 09:36:00;;;;;;;5.45;2.33;;;;;;;3.54;51.88;100444.06;5019198;28;20339;-64
2022/11/14 09:38:26;;;;;;;5.43;2.15;;;;;;;3.30;50.83;100441.88;4986343;28;20034;-65
2022/11/14 09:41:07;;;;;;;4.32;1.52;;;;;;;3.16;51.78;100439.03;4987862;28;20033;-64
2022/11/14 09:43:53;;;;;;;5.65;2.30;;;;;;;3.12;51.93;100432.13;4987294;28;20043;-66
2022/11/14 09:46:21;;;;;;;9.02;3.15;;;;;;;3.06;52.39;100437.97;4987022;28;20102;-65
2022/11/14 09:48:47;;;;;;;5.43;2.00;;;;;;;3.22;52.17;100431.50;4987414;28;20038;-65
2022/11/14 09:51:28;;;;;;;6.75;1.90;;;;;;;3.10;52.54;100432.09;4985993;28;20035;-66
2022/11/14 09:54:19;;;;;;;3.27;1.87;;;;;;;3.25;52.63;100435.78;4987223;28;20026;-64
2022/11/14 09:56:45;;;;;;;4.13;1.90;;;;;;;3.17;53.73;100443.31;4987205;28;20037;-64
2022/11/14 09:59:12;;;;;;;4.15;1.92;;;;;;;3.18;52.89;100442.50;4987130;28;20243;-64
2022/11/14 10:02:05;;;;;;;4.32;2.03;;;;;;;3.13;52.10;100433.00;4987121;28;20042;-64
2022/11/14 10:05:08;;;;;;;5.38;2.70;;;;;;;3.20;52.37;100438.28;5004502;28;20333;-64
2022/11/14 10:07:52;;;;;;;5.63;2.22;;;;;;;3.27;53.30;100440.13;4987084;28;20045;-65
2022/11/14 10:10:36;;;;;;;8.80;2.30;;;;;;;3.19;52.21;100435.69;4992283;28;20023;-64
2022/11/14 10:13:04;;;;;;;6.93;2.08;;;;;;;3.19;51.67;100439.13;4992767;28;20022;-64
2022/11/14 10:16:06;;;;;;;6.18;2.20;;;;;;;3.12;51.86;100432.13;4997889;28;20030;-64
2022/11/14 10:18:45;;;;;;;6.40;2.38;;;;;;;3.10;51.85;100423.56;4994837;28;20046;-65
2022/11/14 10:21:17;;;;;;;8.40;2.20;;;;;;;3.13;52.93;100431.28;4992374;28;20014;-65
2022/11/14 10:24:07;;;;;;;6.10;2.17;;;;;;;3.13;53.09;100433.84;4997669;28;20101;-64
2022/11/14 10:26:41;;;;;;;7.20;2.15;;;;;;;3.22;53.01;100428.94;4996862;28;20030;-64
2022/11/14 10:29:18;;;;;;;12.50;2.42;;;;;;;3.15;53.97;100431.31;4988452;28;20101;-64
2022/11/14 10:32:21;;;;;;;5.05;1.80;;;;;;;2.91;53.39;100422.31;4994915;28;20038;-66
2022/11/14 10:34:52;;;;;;;6.63;2.33;;;;;;;3.10;53.62;100424.41;4995916;28;20034;-64
2022/11/14 10:37:28;;;;;;;6.43;2.07;;;;;;;3.12;53.57;100416.75;5026714;28;20026;-65
2022/11/14 10:40:13;;;;;;;4.15;1.90;;;;;;;2.99;53.18;100417.34;4992662;28;20072;-64
2022/11/14 10:42:42;;;;;;;6.60;2.33;;;;;;;3.05;52.82;100407.22;4977099;28;20096;-65
2022/11/14 10:45:16;;;;;;;6.07;3.30;;;;;;;3.00;52.31;100409.72;4992178;28;20030;-65
2022/11/14 10:47:48;;;;;;;6.60;2.35;;;;;;;2.98;53.43;100418.16;5003384;28;20030;-65
2022/11/14 10:50:20;;;;;;;3.75;1.90;;;;;;;3.00;52.62;100407.16;4986604;28;20327;-64
2022/11/14 10:52:47;;;;;;;5.93;2.30;;;;;;;3.06;53.68;100421.75;4986165;28;20042;-64
2022/11/14 10:55:17;;;;;;;23.77;16.98;;;;;;;3.15;53.62;100421.09;4985743;28;20035;-65
2022/11/14 10:57:46;;;;;;;14.40;8.57;;;;;;;3.19;53.52;100422.88;4995200;28;20389;-64
2022/11/14 11:00:15;;;;;;;9.48;3.42;;;;;;;3.16;53.29;100430.50;4993504;28;20034;-64
2022/11/14 11:02:59;;;;;;;6.88;2.20;;;;;;;3.28;52.25;100423.94;4993576;28;20031;-64
2022/11/14 11:05:29;;;;;;;6.57;2.20;;;;;;;3.18;52.57;100408.34;4986163;28;20101;-64
2022/11/14 11:13:35;;;;;;;7.05;3.75;;;;;;;2.89;53.84;100434.19;4991888;28;20105;-65
2022/11/14 11:16:03;;;;;;;7.80;3.88;;;;;;;2.96;53.04;100410.47;4991895;28;20085;-64
2022/11/14 11:18:36;;;;;;;6.10;2.92;;;;;;;3.03;53.00;100420.00;4986380;28;20049;-66
2022/11/14 11:21:16;;;;;;;8.45;3.25;;;;;;;3.07;53.39;100413.25;4986697;28;20054;-66
2022/11/14 11:23:48;;;;;;;6.07;2.75;;;;;;;3.15;52.76;100421.97;4988886;28;20058;-65
2022/11/14 11:26:30;;;;;;;7.72;2.90;;;;;;;2.82;53.18;100371.81;4987346;28;20094;-65
2022/11/14 11:29:07;;;;;;;5.97;2.05;;;;;;;3.10;52.94;100403.94;4983947;28;20034;-65
2022/11/14 11:31:59;;;;;;;6.03;2.60;;;;;;;2.91;51.94;100402.69;4985237;28;20343;-65
2022/11/14 11:34:31;;;;;;;6.75;2.28;;;;;;;2.80;52.36;100405.88;4985712;28;20069;-65
2022/11/14 11:37:04;;;;;;;5.65;2.13;;;;;;;2.94;52.47;100413.00;4984662;28;20098;-66
2022/11/14 11:39:34;;;;;;;7.03;2.53;;;;;;;3.05;52.77;100422.59;4984430;28;20034;-64
2022/11/14 11:42:08;;;;;;;6.80;2.67;;;;;;;3.20;52.68;100424.63;4984557;28;20035;-64
2022/11/14 11:44:38;;;;;;;4.95;2.47;;;;;;;3.14;53.32;100409.16;4992268;28;20034;-64